• Join FlightAware (Why Join?)
  • Login
  • US Flag 
05:14PM EDT


 

Airport Tracker/Info


-or-


 

Live Flight TrackerFlight Track Log ✈ AAR8731 ✈ 15-Jun-2013 ✈ RKSS / GMP - RKJY / RSU

Flight Track Log - Related Links

Times and Time Zones

All times are in EDT time to prevent confusion due to time zone crossing. See the AAR8731 flight status page for this flight to view local times or setup timezone preferences in your user account.

Time Position Orientation Groundspeed Altitude Reporting Facility
EDT Latitude Longitude Course Direction KTS MPH feet Rate Location/Type
06:34PM 37.3315 126.8617 166° South  Level Estimated
06:35PM 37.2559 126.8853 166° South  Level Estimated
06:35PM 37.4350 126.6650 166° South 12,600  Level FlightAware
06:36PM 37.1803 126.9089 166° South  Level Estimated
06:36PM 37.3620 126.6810 170° South 14,900  Level FlightAware
06:37PM 37.2800 126.7000 170° South 17,300 2,580 Climbing FlightAware
06:38PM 37.2150 126.7150 170° South 18,600 1,860 Climbing FlightAware
06:40PM 37.0885 126.7644 163° South  Level Estimated
06:41PM 37.0141 126.7934 163° South  Level Estimated
06:42PM 36.9397 126.8223 163° South  Level Estimated
06:43PM 36.8653 126.8512 163° South  Level Estimated
06:44PM 36.7909 126.8800 163° South  Level Estimated
06:45PM 36.7165 126.9088 163° South  Level Estimated
06:46PM 36.6421 126.9374 163° South  Level Estimated
06:47PM 36.5676 126.9661 163° South  Level Estimated
06:48PM 36.4932 126.9947 163° South  Level Estimated
06:49PM 36.4187 127.0232 163° South  Level Estimated
06:50PM 36.3442 127.0517 163° South  Level Estimated
06:51PM 36.2698 127.0801 163° South  Level Estimated
06:52PM 36.1953 127.1085 163° South  Level Estimated
06:53PM 36.1208 127.1368 163° South  Level Estimated
06:54PM 36.0463 127.1651 163° South  Level Estimated
06:55PM 35.9719 127.1933 163° South  Level Estimated
06:56PM 35.8974 127.2215 163° South  Level Estimated
06:57PM 35.8228 127.2496 163° South  Level Estimated
06:58PM 35.7483 127.2776 163° South  Level Estimated
06:59PM 35.6738 127.3056 163° South  Level Estimated
07:00PM 35.5993 127.3336 163° South  Level Estimated
07:01PM 35.5247 127.3615 163° South  Level Estimated
07:02PM 35.4502 127.3893 163° South  Level Estimated
07:03PM 35.3757 127.4171 163° South  Level Estimated
07:04PM 35.3011 127.4448 163° South  Level Estimated
07:05PM 35.2266 127.4725 163° South  Level Estimated
07:06PM 35.1520 127.5002 163° South  Level Estimated
07:07PM 35.0774 127.5278 163° South  Level Estimated
07:08PM 35.0028 127.5553 163° South  Level Estimated
07:09PM 34.9283 127.5828 163° South  Level Estimated
07:10PM 34.8537 127.6102 163° South  Level Estimated
07:11PM 34.8398 127.6153 163° South  Level Estimated
07:12PM 34.8398 127.6153 180° South  Level Estimated
07:13PM 34.8398 127.6153 180° South  Level Estimated
07:14PM 34.8398 127.6153 180° South  Level Estimated
07:15PM 34.8398 127.6153 180° South  Level Estimated
07:16PM 34.8398 127.6153 180° South  Level Estimated
07:17PM 34.8398 127.6153 180° South  Level Estimated
07:18PM 34.8398 127.6153 180° South  Level Estimated
07:19PM 34.8398 127.6153 180° South  Level Estimated